Time;durP1;ratioP1;P1;durP2;ratioP2;P2;SDS_P1;SDS_P2;PMS_P1;PMS_P2;Temp;Humidity;BMP_temperature;BMP_pressure;BME280_temperature;BME280_humidity;BME280_pressure;Samples;Min_cycle;Max_cycle;Signal;HPM_P1;HPM_P2
2022/04/19 00:00:12;;;;;;;56.22;35.28;;;11.70;99.90;;;;;;5050085;28;20017;-57
2022/04/19 00:02:37;;;;;;;56.08;36.40;;;11.70;99.90;;;;;;5050794;28;20028;-57
2022/04/19 00:05:03;;;;;;;56.20;37.20;;;11.70;99.90;;;;;;5049829;28;20139;-57
2022/04/19 00:07:29;;;;;;;52.67;34.95;;;11.60;99.90;;;;;;5049854;28;20044;-57
2022/04/19 00:09:55;;;;;;;51.30;36.20;;;11.70;99.90;;;;;;5050011;28;20518;-58
2022/04/19 00:12:22;;;;;;;58.58;36.95;;;11.60;99.90;;;;;;5050186;28;20455;-57
2022/04/19 00:14:48;;;;;;;53.70;36.53;;;11.60;99.90;;;;;;5050408;28;20502;-57
2022/04/19 00:17:14;;;;;;;51.53;36.15;;;11.60;99.90;;;;;;5050216;28;20021;-57
2022/04/19 00:19:40;;;;;;;54.30;37.08;;;11.60;99.90;;;;;;5049956;28;20025;-58
2022/04/19 00:22:06;;;;;;;60.03;37.83;;;11.60;99.90;;;;;;5049833;28;20108;-58
2022/04/19 00:24:32;;;;;;;58.50;37.72;;;11.60;99.90;;;;;;5049829;28;20117;-58
2022/04/19 00:26:57;;;;;;;57.63;37.30;;;11.50;99.90;;;;;;5049723;28;20048;-58
2022/04/19 00:29:23;;;;;;;61.88;38.42;;;11.50;99.90;;;;;;5050628;28;20063;-56
2022/04/19 00:31:49;;;;;;;56.53;37.75;;;11.50;99.90;;;;;;5049676;28;20029;-57
2022/04/19 00:34:16;;;;;;;59.92;37.20;;;11.50;99.90;;;;;;5050023;28;20053;-57
2022/04/19 00:36:41;;;;;;;58.85;37.78;;;11.50;99.90;;;;;;5048369;28;20037;-56
2022/04/19 00:39:07;;;;;;;55.33;38.35;;;11.50;99.90;;;;;;5049345;28;20139;-56
2022/04/19 00:41:32;;;;;;;58.78;39.78;;;11.50;99.90;;;;;;5048899;28;20025;-57
2022/04/19 00:43:58;;;;;;;62.45;39.70;;;11.50;99.90;;;;;;5050353;28;20645;-57
2022/04/19 00:46:24;;;;;;;61.78;39.83;;;11.60;99.90;;;;;;5049084;28;20031;-57
2022/04/19 00:48:52;;;;;;;61.58;39.15;;;11.60;99.90;;;;;;5050336;28;20108;-57
2022/04/19 00:51:19;;;;;;;58.30;38.97;;;11.60;99.90;;;;;;5049694;28;20052;-57
2022/04/19 00:53:47;;;;;;;57.72;38.92;;;11.50;99.90;;;;;;5051877;28;20029;-57
2022/04/19 00:56:12;;;;;;;56.08;38.55;;;11.50;99.90;;;;;;5052426;28;20032;-57
2022/04/19 00:58:38;;;;;;;62.00;40.72;;;11.50;99.90;;;;;;5054118;28;20021;-56
2022/04/19 01:01:04;;;;;;;58.30;39.33;;;11.60;99.90;;;;;;5053893;28;20017;-57
2022/04/19 01:03:29;;;;;;;56.10;37.78;;;11.60;99.90;;;;;;5053419;28;20031;-57
2022/04/19 01:05:55;;;;;;;58.70;40.90;;;11.40;99.90;;;;;;5053290;28;20055;-57
2022/04/19 01:08:23;;;;;;;61.72;40.70;;;11.50;99.90;;;;;;5053208;28;20094;-57
2022/04/19 01:10:49;;;;;;;60.25;41.25;;;11.60;99.90;;;;;;5053005;28;20057;-57
2022/04/19 01:13:18;;;;;;;61.88;41.63;;;11.60;99.90;;;;;;5053368;28;20306;-56
2022/04/19 01:15:49;;;;;;;63.92;41.45;;;11.50;99.90;;;;;;5053791;28;20032;-57
2022/04/19 01:18:20;;;;;;;64.70;41.90;;;11.40;99.90;;;;;;5053775;28;20545;-58
2022/04/19 01:20:48;;;;;;;58.85;39.97;;;11.50;99.90;;;;;;5053692;28;20021;-58
2022/04/19 01:23:13;;;;;;;61.05;40.45;;;11.50;99.90;;;;;;5053662;28;20040;-58
2022/04/19 01:25:39;;;;;;;61.67;41.47;;;11.50;99.90;;;;;;5053412;28;20032;-58
2022/04/19 01:28:05;;;;;;;67.80;41.55;;;11.50;99.90;;;;;;5053380;28;20025;-58
2022/04/19 01:30:32;;;;;;;62.20;40.78;;;11.50;99.90;;;;;;5053433;28;20139;-58
2022/04/19 01:32:59;;;;;;;61.97;41.20;;;11.40;99.90;;;;;;5052748;28;20363;-58
2022/04/19 01:35:25;;;;;;;61.40;40.80;;;11.30;99.90;;;;;;5053205;28;20104;-58
2022/04/19 01:37:51;;;;;;;61.65;40.78;;;11.30;99.90;;;;;;5053441;28;20119;-57
2022/04/19 01:40:17;;;;;;;66.43;42.55;;;11.40;99.90;;;;;;5053413;28;20075;-57
2022/04/19 01:42:53;;;;;;;62.22;41.53;;;11.40;99.90;;;;;;5053208;28;20454;-57
2022/04/19 01:45:23;;;;;;;65.45;42.58;;;11.30;99.90;;;;;;5052933;28;20021;-57
2022/04/19 01:47:49;;;;;;;66.63;43.38;;;11.20;99.90;;;;;;5053590;28;20053;-57
2022/04/19 01:50:17;;;;;;;66.15;43.10;;;11.20;99.90;;;;;;5052759;28;20044;-57
2022/04/19 01:52:43;;;;;;;65.30;43.28;;;11.30;99.90;;;;;;5052665;28;20017;-57
2022/04/19 01:55:14;;;;;;;61.05;41.83;;;11.20;99.90;;;;;;5052689;28;20043;-57
2022/04/19 01:57:57;;;;;;;63.83;42.28;;;11.20;99.90;;;;;;5052544;28;20025;-57
2022/04/19 02:00:25;;;;;;;64.72;43.95;;;11.10;99.90;;;;;;5052284;28;20053;-58
2022/04/19 02:02:55;;;;;;;62.88;43.83;;;11.10;99.90;;;;;;5052942;28;20056;-59
2022/04/19 02:05:21;;;;;;;71.40;46.05;;;11.10;99.90;;;;;;5050955;28;20025;-57
2022/04/19 02:07:47;;;;;;;64.40;45.13;;;11.00;99.90;;;;;;5052759;28;20025;-56
2022/04/19 02:10:15;;;;;;;69.43;45.40;;;10.90;99.90;;;;;;5052669;28;20113;-57
2022/04/19 02:12:42;;;;;;;72.78;46.15;;;10.90;99.90;;;;;;5051873;28;20029;-57
2022/04/19 02:15:08;;;;;;;71.60;47.90;;;10.90;99.90;;;;;;5052384;28;20108;-57
2022/04/19 02:17:41;;;;;;;72.28;48.53;;;10.90;99.90;;;;;;5051902;28;20549;-57
2022/04/19 02:20:07;;;;;;;;;;;10.80;99.90;;;;;;5052578;28;20501;-57
2022/04/19 02:22:33;;;;;;;73.40;48.47;;;10.70;99.90;;;;;;5052366;28;19909;-56
2022/04/19 02:25:00;;;;;;;70.47;47.70;;;10.70;99.90;;;;;;5050909;28;20543;-56
2022/04/19 02:27:27;;;;;;;76.80;49.95;;;10.70;99.90;;;;;;5034644;28;20283;-56
2022/04/19 02:29:54;;;;;;;74.90;49.50;;;10.70;99.90;;;;;;5052527;28;20389;-56
2022/04/19 02:32:20;;;;;;;82.28;50.60;;;10.60;99.90;;;;;;5052566;28;20359;-56
2022/04/19 02:34:47;;;;;;;75.30;49.47;;;10.60;99.90;;;;;;5051778;28;20037;-57
2022/04/19 02:37:13;;;;;;;71.22;49.25;;;10.60;99.90;;;;;;5051812;28;20405;-58
2022/04/19 02:39:38;;;;;;;76.75;50.65;;;10.50;99.90;;;;;;5051919;28;20080;-56
2022/04/19 02:42:06;;;;;;;77.38;50.33;;;10.40;99.90;;;;;;5052064;28;20032;-56
2022/04/19 02:44:32;;;;;;;81.65;51.50;;;10.40;99.90;;;;;;5051962;28;20032;-56
2022/04/19 02:46:58;;;;;;;76.50;50.40;;;10.40;99.90;;;;;;5051930;28;20025;-56
2022/04/19 02:49:24;;;;;;;74.40;50.50;;;10.40;99.90;;;;;;5052017;28;20028;-57
2022/04/19 02:51:50;;;;;;;78.50;52.42;;;10.40;99.90;;;;;;5050279;28;20039;-56
2022/04/19 02:54:17;;;;;;;78.30;52.95;;;10.40;99.90;;;;;;5051794;28;20505;-57
2022/04/19 02:56:42;;;;;;;79.68;51.53;;;10.40;99.90;;;;;;5050041;28;20032;-56
2022/04/19 02:59:09;;;;;;;83.07;53.10;;;10.30;99.90;;;;;;5051581;28;20025;-56
2022/04/19 03:01:35;;;;;;;78.97;52.30;;;10.30;99.90;;;;;;5051386;28;20025;-56
2022/04/19 03:04:01;;;;;;;82.93;53.13;;;10.30;99.90;;;;;;5051643;28;20024;-56
2022/04/19 03:06:26;;;;;;;86.18;52.65;;;10.30;99.90;;;;;;5051424;28;20097;-56
2022/04/19 03:08:52;;;;;;;85.03;53.90;;;10.30;99.90;;;;;;5051563;28;20018;-56
2022/04/19 03:11:18;;;;;;;78.85;52.65;;;10.20;99.90;;;;;;5050831;28;20029;-57
2022/04/19 03:13:43;;;;;;;91.75;54.17;;;10.30;99.90;;;;;;5050958;28;20021;-57
2022/04/19 03:16:13;;;;;;;78.22;51.78;;;10.30;99.90;;;;;;5050836;28;20036;-57
2022/04/19 03:18:42;;;;;;;85.15;53.45;;;10.20;99.90;;;;;;5050809;28;20401;-57
2022/04/19 03:21:10;;;;;;;85.03;54.90;;;10.20;99.90;;;;;;5050983;28;20099;-58
2022/04/19 03:29:04;;;;;;;89.22;55.75;;;10.40;99.90;;;;;;5051095;28;20146;-58
2022/04/19 03:31:31;;;;;;;90.85;56.20;;;10.30;99.90;;;;;;5050834;28;20108;-58
2022/04/19 03:33:57;;;;;;;87.45;56.45;;;10.20;99.90;;;;;;5050865;28;20052;-58
2022/04/19 03:36:23;;;;;;;89.47;55.92;;;10.10;99.90;;;;;;5049616;28;20470;-58
2022/04/19 03:38:48;;;;;;;90.88;59.13;;;10.10;99.90;;;;;;5050820;28;20106;-58
2022/04/19 03:41:14;;;;;;;87.13;57.45;;;10.10;99.90;;;;;;5050674;28;20021;-58
2022/04/19 03:43:41;;;;;;;90.70;58.15;;;10.10;99.90;;;;;;5050554;28;20028;-58
2022/04/19 03:46:10;;;;;;;94.80;59.15;;;10.10;99.90;;;;;;5050353;28;20096;-58
2022/04/19 03:48:36;;;;;;;97.90;62.08;;;10.20;99.90;;;;;;5050604;28;20064;-58
2022/04/19 03:51:03;;;;;;;99.28;61.25;;;10.20;99.90;;;;;;5050797;28;20043;-58
2022/04/19 03:53:29;;;;;;;100.97;61.08;;;10.10;99.90;;;;;;5050907;28;20024;-58
2022/04/19 03:55:55;;;;;;;94.97;57.92;;;10.00;99.90;;;;;;5050374;28;20028;-58
2022/04/19 03:58:20;;;;;;;92.35;58.17;;;9.90;99.90;;;;;;5050326;28;20032;-58
2022/04/19 04:00:46;;;;;;;90.68;57.65;;;9.90;99.90;;;;;;5049172;28;20021;-58
2022/04/19 04:03:12;;;;;;;91.70;58.75;;;9.90;99.90;;;;;;5050897;28;20739;-58
2022/04/19 04:05:38;;;;;;;87.18;59.72;;;9.90;99.90;;;;;;5050652;28;20024;-58
2022/04/19 04:08:04;;;;;;;94.90;60.53;;;9.90;99.90;;;;;;5051042;28;20020;-58
2022/04/19 04:10:30;;;;;;;96.72;62.80;;;9.90;99.90;;;;;;5050750;28;20371;-58
2022/04/19 04:12:57;;;;;;;89.00;58.78;;;9.90;99.90;;;;;;5049145;28;20535;-58
2022/04/19 04:15:23;;;;;;;92.85;58.90;;;9.80;99.90;;;;;;5049516;28;20075;-58
2022/04/19 04:17:48;;;;;;;99.47;59.40;;;9.80;99.90;;;;;;5050598;28;20029;-58
2022/04/19 04:20:14;;;;;;;98.38;63.50;;;9.80;99.90;;;;;;5050435;28;20083;-58
2022/04/19 04:22:40;;;;;;;98.72;63.42;;;9.80;99.90;;;;;;5050176;28;20517;-58
2022/04/19 04:25:06;;;;;;;107.47;66.40;;;9.80;99.90;;;;;;5050002;28;20147;-60
2022/04/19 04:27:31;;;;;;;100.40;64.90;;;9.80;99.90;;;;;;5049624;28;20055;-58
2022/04/19 04:29:57;;;;;;;100.75;64.90;;;9.80;99.90;;;;;;5053952;28;20374;-58
2022/04/19 04:32:22;;;;;;;104.90;65.47;;;9.70;99.90;;;;;;5054429;28;20055;-58
2022/04/19 04:34:48;;;;;;;102.13;64.45;;;9.70;99.90;;;;;;5054178;28;20501;-58
2022/04/19 04:37:14;;;;;;;107.32;66.80;;;9.70;99.90;;;;;;5054535;28;20112;-58
2022/04/19 04:39:39;;;;;;;106.45;68.72;;;9.70;99.90;;;;;;5054315;28;20052;-57
2022/04/19 04:42:05;;;;;;;109.13;69.90;;;9.70;99.90;;;;;;5054493;28;20029;-57
2022/04/19 04:44:31;;;;;;;105.47;66.93;;;9.60;99.90;;;;;;5054173;28;20327;-57
2022/04/19 04:49:41;;;;;;;102.80;67.72;;;9.50;99.90;;;;;;5054083;28;20040;-57
2022/04/19 04:52:11;;;;;;;103.95;66.57;;;9.60;99.90;;;;;;5054202;28;20025;-57
2022/04/19 04:54:38;;;;;;;104.65;66.45;;;9.60;99.90;;;;;;5053944;28;20048;-57
2022/04/19 04:57:05;;;;;;;106.03;66.78;;;9.60;99.90;;;;;;5053844;28;20444;-57
2022/04/19 04:59:32;;;;;;;104.15;69.55;;;9.60;99.90;;;;;;5054041;28;20013;-57
2022/04/19 05:01:58;;;;;;;106.10;68.35;;;9.60;99.90;;;;;;5053808;28;20026;-57
2022/04/19 05:04:24;;;;;;;100.47;65.93;;;9.60;99.90;;;;;;5053568;28;20111;-57
2022/04/19 05:06:49;;;;;;;111.28;65.70;;;9.70;99.90;;;;;;5053285;28;20032;-57
2022/04/19 05:09:15;;;;;;;100.63;62.97;;;9.70;99.90;;;;;;5052123;28;20032;-57
2022/04/19 05:11:41;;;;;;;96.05;62.08;;;9.80;99.90;;;;;;5053782;28;20037;-57
2022/04/19 05:14:10;;;;;;;102.20;64.15;;;9.80;99.90;;;;;;5053681;28;20102;-57
2022/04/19 05:16:38;;;;;;;98.35;62.38;;;9.80;99.90;;;;;;5053670;28;20486;-58
2022/04/19 05:19:04;;;;;;;93.10;61.33;;;9.80;99.90;;;;;;5053300;28;20377;-58
2022/04/19 05:21:30;;;;;;;94.07;61.13;;;9.70;99.90;;;;;;5053298;28;20249;-58
2022/04/19 05:23:56;;;;;;;100.72;63.25;;;9.80;99.90;;;;;;5053610;28;20108;-58
2022/04/19 05:26:24;;;;;;;105.55;64.85;;;9.80;99.90;;;;;;5052553;28;20025;-58
2022/04/19 05:28:50;;;;;;;102.63;65.63;;;9.90;99.90;;;;;;5053290;28;20029;-58
2022/04/19 05:31:16;;;;;;;101.80;64.82;;;10.10;99.90;;;;;;5052186;28;20043;-58
2022/04/19 05:33:41;;;;;;;99.38;62.15;;;10.00;99.90;;;;;;5053301;28;20098;-58
2022/04/19 05:36:07;;;;;;;96.47;60.92;;;10.00;99.90;;;;;;5053112;28;20115;-58
2022/04/19 05:38:33;;;;;;;94.10;61.28;;;10.10;99.90;;;;;;5053181;28;20051;-58
2022/04/19 05:40:58;;;;;;;99.18;60.75;;;10.10;99.90;;;;;;5053674;28;20021;-58
2022/04/19 05:43:25;;;;;;;93.38;58.75;;;10.20;99.90;;;;;;5052241;28;20473;-58
2022/04/19 05:45:51;;;;;;;94.57;56.67;;;10.30;99.90;;;;;;5052441;28;20104;-58
2022/04/19 05:48:16;;;;;;;92.43;58.10;;;10.40;99.90;;;;;;5059546;28;20108;-58
2022/04/19 05:50:42;;;;;;;87.47;57.80;;;10.50;99.90;;;;;;5072154;28;20028;-58
2022/04/19 05:53:08;;;;;;;90.68;58.65;;;10.60;99.90;;;;;;5071323;28;20393;-58
2022/04/19 05:55:33;;;;;;;91.75;57.40;;;10.70;99.90;;;;;;5068691;28;20028;-58
2022/04/19 05:57:59;;;;;;;86.43;56.55;;;10.90;99.90;;;;;;5065738;28;20028;-57
2022/04/19 06:00:25;;;;;;;85.82;56.00;;;11.20;99.90;;;;;;5058784;28;20104;-57
2022/04/19 06:05:35;;;;;;;80.82;53.38;;;11.50;99.90;;;;;;5064085;28;20031;-58
2022/04/19 06:08:01;;;;;;;84.97;54.80;;;11.60;99.90;;;;;;5054449;28;20388;-58
2022/04/19 06:10:27;;;;;;;90.68;55.67;;;11.70;99.90;;;;;;5057753;28;20144;-58
2022/04/19 06:12:53;;;;;;;79.35;53.67;;;11.90;99.90;;;;;;5059323;28;20036;-57
2022/04/19 06:15:19;;;;;;;75.95;51.60;;;12.10;99.90;;;;;;5053503;28;20209;-57
2022/04/19 06:17:44;;;;;;;73.28;49.10;;;12.20;99.90;;;;;;5051611;28;20043;-58
2022/04/19 06:20:10;;;;;;;79.20;51.28;;;12.30;99.90;;;;;;5052968;28;20020;-58
2022/04/19 06:22:36;;;;;;;77.72;51.45;;;12.50;99.90;;;;;;5056576;28;20528;-58
2022/04/19 06:25:02;;;;;;;86.95;52.47;;;12.70;99.90;;;;;;5057178;28;20393;-57
2022/04/19 06:27:28;;;;;;;79.90;48.45;;;12.80;99.90;;;;;;5059567;28;20037;-58
2022/04/19 06:29:56;;;;;;;72.13;48.78;;;12.70;99.90;;;;;;5057391;28;20445;-58
2022/04/19 06:32:22;;;;;;;74.70;48.40;;;12.80;99.90;;;;;;5059026;28;20037;-58
2022/04/19 06:34:48;;;;;;;68.97;48.15;;;13.00;99.90;;;;;;5060019;28;20045;-58
2022/04/19 06:37:14;;;;;;;69.75;47.33;;;13.20;99.90;;;;;;5057263;28;20032;-58
2022/04/19 06:39:41;;;;;;;66.43;47.35;;;13.00;99.90;;;;;;5058179;28;20028;-58
2022/04/19 06:42:07;;;;;;;67.80;48.40;;;13.00;99.90;;;;;;5052914;28;20021;-59
2022/04/19 06:44:33;;;;;;;68.53;47.08;;;13.30;99.90;;;;;;5059261;28;20035;-58
2022/04/19 06:46:59;;;;;;;71.25;47.55;;;13.40;99.90;;;;;;5056130;28;20025;-58
2022/04/19 06:49:24;;;;;;;72.82;48.25;;;13.50;99.90;;;;;;5063821;28;20051;-58
2022/04/19 06:51:50;;;;;;;67.65;46.35;;;13.70;99.90;;;;;;5064301;28;20025;-58
2022/04/19 06:54:16;;;;;;;64.18;46.00;;;13.80;99.90;;;;;;5063462;28;20037;-58
2022/04/19 06:56:45;;;;;;;68.63;47.28;;;13.90;99.90;;;;;;5060182;28;20108;-58
2022/04/19 06:59:10;;;;;;;64.63;47.33;;;14.10;99.90;;;;;;5047185;28;20025;-58
2022/04/19 07:01:39;;;;;;;67.13;46.72;;;14.30;99.90;;;;;;5053387;28;20032;-58
2022/04/19 07:04:05;;;;;;;66.35;44.30;;;14.40;99.90;;;;;;5057443;28;20025;-58
2022/04/19 07:06:31;;;;;;;61.53;45.13;;;14.40;99.90;;;;;;5055001;28;20032;-58
2022/04/19 07:08:56;;;;;;;69.88;45.90;;;14.30;99.90;;;;;;5056503;28;20363;-58
2022/04/19 07:11:22;;;;;;;60.97;45.88;;;14.50;99.90;;;;;;5052289;28;20032;-58
2022/04/19 07:13:48;;;;;;;68.53;46.70;;;14.50;99.90;;;;;;5044971;28;20055;-58
2022/04/19 07:16:14;;;;;;;65.35;45.97;;;14.60;99.90;;;;;;5052527;28;20028;-58
2022/04/19 07:18:39;;;;;;;177.63;75.57;;;14.80;99.90;;;;;;5055074;28;20036;-58
2022/04/19 07:26:48;;;;;;;61.25;44.53;;;15.10;99.90;;;;;;5053360;28;20039;-57
2022/04/19 07:29:18;;;;;;;65.65;44.45;;;15.10;99.90;;;;;;5051617;28;20436;-58
2022/04/19 07:31:46;;;;;;;62.20;44.88;;;15.30;99.90;;;;;;5051907;28;20028;-57
2022/04/19 07:34:12;;;;;;;65.85;45.80;;;15.40;99.90;;;;;;5053874;28;20577;-57
2022/04/19 07:36:39;;;;;;;61.45;43.28;;;15.50;99.90;;;;;;5052877;28;20043;-57
2022/04/19 07:39:06;;;;;;;62.83;44.15;;;15.80;99.90;;;;;;5053192;28;20032;-57
2022/04/19 07:41:34;;;;;;;63.30;44.30;;;15.80;99.90;;;;;;5056098;28;20048;-57
2022/04/19 07:44:01;;;;;;;72.93;44.72;;;15.80;99.90;;;;;;5055385;28;20040;-58
2022/04/19 07:46:27;;;;;;;61.92;44.63;;;15.90;99.90;;;;;;5048907;28;21045;-58
2022/04/19 07:48:53;;;;;;;62.50;44.67;;;16.00;99.90;;;;;;5052207;28;20021;-58
2022/04/19 07:51:19;;;;;;;57.65;43.33;;;15.80;99.90;;;;;;5057298;28;20336;-58
2022/04/19 07:53:45;;;;;;;57.38;43.75;;;15.60;99.90;;;;;;5055195;28;20155;-58
2022/04/19 07:56:10;;;;;;;63.58;44.17;;;15.50;99.90;;;;;;5055565;28;20064;-58
2022/04/19 07:58:36;;;;;;;59.65;43.92;;;15.70;99.90;;;;;;5054966;28;20321;-58
2022/04/19 08:01:02;;;;;;;60.58;43.28;;;15.70;99.90;;;;;;5056912;28;20021;-58
2022/04/19 08:03:28;;;;;;;59.13;43.03;;;15.70;99.90;;;;;;5053005;28;20036;-58
2022/04/19 08:05:54;;;;;;;60.97;44.08;;;15.70;99.90;;;;;;5056600;28;20284;-58
2022/04/19 08:08:23;;;;;;;60.78;42.92;;;15.60;99.90;;;;;;5055046;28;20032;-58
2022/04/19 08:10:49;;;;;;;55.83;43.08;;;15.70;99.90;;;;;;5054665;28;20116;-58
2022/04/19 08:13:15;;;;;;;57.50;41.03;;;15.80;99.90;;;;;;5051558;28;20029;-58
2022/04/19 08:15:41;;;;;;;59.13;41.33;;;16.00;99.90;;;;;;5051473;28;20042;-58
2022/04/19 08:18:11;;;;;;;57.88;41.42;;;16.10;99.90;;;;;;5051521;28;20397;-58
2022/04/19 08:20:37;;;;;;;62.60;42.10;;;16.40;99.90;;;;;;5049513;28;20128;-58
2022/04/19 08:23:03;;;;;;;58.70;41.42;;;16.80;99.90;;;;;;5053154;28;20532;-58
2022/04/19 08:25:29;;;;;;;58.33;40.70;;;17.20;99.90;;;;;;5054910;28;20029;-59
2022/04/19 08:27:55;;;;;;;52.25;39.53;;;17.40;99.90;;;;;;5050413;28;20130;-58
2022/04/19 08:30:21;;;;;;;56.83;39.63;;;17.60;99.90;;;;;;5052665;28;20513;-58
2022/04/19 08:32:47;;;;;;;50.47;37.15;;;17.80;99.90;;;;;;5051338;28;20040;-58
2022/04/19 08:35:13;;;;;;;46.00;35.75;;;18.00;99.90;;;;;;5052515;28;20757;-63
2022/04/19 08:37:39;;;;;;;54.70;38.45;;;18.20;99.90;;;;;;5053053;28;20261;-58
2022/04/19 08:40:09;;;;;;;49.60;39.17;;;18.40;99.90;;;;;;5052094;28;20505;-58
2022/04/19 08:42:37;;;;;;;56.22;39.35;;;18.40;99.90;;;;;;5050491;28;20083;-58
2022/04/19 08:45:05;;;;;;;56.40;39.10;;;18.20;99.90;;;;;;5052285;28;20517;-58
2022/04/19 08:47:37;;;;;;;49.63;39.17;;;18.30;99.90;;;;;;5052335;28;20109;-58
2022/04/19 08:50:07;;;;;;;;;;;18.70;99.90;;;;;;5050528;28;20047;-58
2022/04/19 08:52:34;;;;;;;52.45;39.67;;;18.80;99.90;;;;;;5051281;28;19912;-58
2022/04/19 08:57:45;;;;;;;48.40;37.55;;;19.10;99.90;;;;;;5055498;28;20111;-58
2022/04/19 09:00:11;;;;;;;51.88;40.22;;;19.10;99.90;;;;;;5057183;28;20420;-58
2022/04/19 09:02:37;;;;;;;47.20;36.83;;;19.10;99.90;;;;;;5056979;28;20047;-58
2022/04/19 09:05:13;;;;;;;46.65;36.85;;;19.10;99.90;;;;;;5060357;28;20397;-58
2022/04/19 09:07:39;;;;;;;46.13;35.05;;;19.00;99.90;;;;;;5048965;28;20470;-58
2022/04/19 09:10:06;;;;;;;54.75;36.25;;;19.10;99.90;;;;;;5059058;28;20032;-58
2022/04/19 09:12:32;;;;;;;46.70;34.60;;;19.50;99.90;;;;;;5049149;28;20040;-58
2022/04/19 09:15:06;;;;;;;39.17;32.35;;;20.10;99.10;;;;;;5058093;28;20037;-58
2022/04/19 09:17:34;;;;;;;37.78;29.75;;;20.50;97.30;;;;;;5060383;28;20029;-59
2022/04/19 09:20:18;;;;;;;35.03;29.35;;;20.80;95.40;;;;;;5061730;28;20485;-58
2022/04/19 09:22:48;;;;;;;33.28;26.52;;;20.80;93.70;;;;;;5059355;28;20621;-58
2022/04/19 09:25:25;;;;;;;33.20;27.52;;;20.80;92.90;;;;;;5059077;28;20043;-59
2022/04/19 09:27:54;;;;;;;34.10;27.98;;;21.00;92.00;;;;;;5056665;28;20459;-59
2022/04/19 09:30:30;;;;;;;37.38;28.45;;;21.30;91.90;;;;;;5057774;28;20016;-59
2022/04/19 09:33:02;;;;;;;32.35;27.10;;;21.70;91.30;;;;;;5061023;28;20062;-59
2022/04/19 09:35:37;;;;;;;30.15;26.80;;;22.20;90.20;;;;;;5061318;28;20028;-59
2022/04/19 09:38:04;;;;;;;34.80;26.73;;;22.60;87.40;;;;;;5056615;28;20064;-58
2022/04/19 09:40:51;;;;;;;33.20;26.20;;;22.50;86.80;;;;;;5060805;28;20025;-59
2022/04/19 09:43:18;;;;;;;28.60;24.63;;;22.50;84.60;;;;;;5063670;28;20047;-59
2022/04/19 09:45:59;;;;;;;27.75;23.88;;;22.40;83.70;;;;;;5056159;28;20530;-59
2022/04/19 09:48:31;;;;;;;31.17;23.88;;;22.20;83.60;;;;;;5058828;28;20572;-59
2022/04/19 09:51:07;;;;;;;;;;;21.90;82.60;;;;;;5056439;28;20375;-58
2022/04/19 09:53:45;;;;;;;29.17;22.00;;;22.20;81.40;;;;;;5060322;28;19923;-58
2022/04/19 09:56:13;;;;;;;26.38;21.27;;;23.10;76.50;;;;;;5058227;28;20462;-58
2022/04/19 09:58:40;;;;;;;27.10;21.73;;;23.40;76.00;;;;;;5057776;28;20020;-58
2022/04/19 10:01:07;;;;;;;28.77;23.77;;;23.80;73.80;;;;;;5057942;28;20067;-58
2022/04/19 10:09:04;;;;;;;23.85;20.38;;;23.70;70.40;;;;;;5050785;28;20282;-58
2022/04/19 10:11:31;;;;;;;26.48;20.50;;;24.50;68.90;;;;;;5053082;28;20252;-58
2022/04/19 10:13:57;;;;;;;24.13;20.67;;;24.70;65.70;;;;;;5056059;28;20305;-58
2022/04/19 10:16:24;;;;;;;27.23;18.55;;;24.40;67.50;;;;;;5060369;28;20027;-58
2022/04/19 10:18:49;;;;;;;24.35;19.95;;;24.10;66.10;;;;;;5057008;28;20386;-59
2022/04/19 10:21:39;;;;;;;25.00;19.67;;;24.20;65.70;;;;;;5059400;28;20039;-58
2022/04/19 10:24:10;;;;;;;27.58;19.77;;;24.00;67.00;;;;;;5056286;28;20127;-58
2022/04/19 10:26:48;;;;;;;24.43;18.17;;;24.60;66.60;;;;;;5055143;28;20048;-58
2022/04/19 10:29:23;;;;;;;21.42;16.98;;;24.60;64.00;;;;;;5060464;28;20795;-59
2022/04/19 10:32:01;;;;;;;22.42;16.40;;;24.50;62.50;;;;;;5051005;28;20089;-60
2022/04/19 10:34:33;;;;;;;23.60;15.07;;;25.00;61.00;;;;;;5055613;28;20505;-59
2022/04/19 10:37:15;;;;;;;;;;;25.30;59.90;;;;;;5057877;28;20491;-59
2022/04/19 10:39:47;;;;;;;20.00;14.40;;;25.10;59.50;;;;;;5055391;28;19908;-59
2022/04/19 10:42:40;;;;;;;25.50;15.20;;;25.10;59.30;;;;;;5052362;28;20067;-60
2022/04/19 10:45:12;;;;;;;23.30;15.88;;;25.00;58.10;;;;;;5054656;28;20491;-60
2022/04/19 10:47:58;;;;;;;19.02;16.90;;;25.10;58.60;;;;;;5055002;28;20581;-59
2022/04/19 10:50:44;;;;;;;19.48;14.32;;;25.40;57.80;;;;;;5057745;28;20547;-59
2022/04/19 10:53:11;;;;;;;23.23;15.27;;;25.30;57.90;;;;;;5055626;28;20025;-58
2022/04/19 10:55:39;;;;;;;22.00;15.48;;;25.20;57.80;;;;;;5057959;28;20035;-59
2022/04/19 10:58:17;;;;;;;20.08;14.98;;;24.60;58.10;;;;;;5060740;28;20122;-60
2022/04/19 11:01:00;;;;;;;22.27;16.85;;;23.90;59.30;;;;;;5059099;28;20032;-59
2022/04/19 11:03:26;;;;;;;23.05;15.95;;;24.20;58.60;;;;;;5056833;28;20033;-59
2022/04/19 11:05:57;;;;;;;19.60;16.15;;;23.90;59.10;;;;;;5056755;28;20021;-59
2022/04/19 11:08:25;;;;;;;25.15;15.73;;;24.10;58.70;;;;;;5055377;28;20036;-59
2022/04/19 11:11:02;;;;;;;21.65;14.98;;;24.30;57.30;;;;;;5046370;28;20047;-58
2022/04/19 11:14:10;;;;;;;20.73;15.38;;;24.90;57.00;;;;;;5053823;28;20017;-59
2022/04/19 11:16:37;;;;;;;19.25;14.65;;;25.00;57.50;;;;;;5049745;28;20068;-59
2022/04/19 11:19:15;;;;;;;18.45;14.45;;;24.60;56.90;;;;;;5052308;28;20037;-59
2022/04/19 11:21:52;;;;;;;20.52;14.90;;;24.30;57.60;;;;;;5054125;28;20416;-59
2022/04/19 11:24:56;;;;;;;23.63;15.98;;;24.30;57.40;;;;;;5054475;28;20032;-59
2022/04/19 11:27:22;;;;;;;21.17;15.35;;;24.10;57.90;;;;;;5055119;28;20027;-59
2022/04/19 11:29:49;;;;;;;20.67;15.20;;;24.00;57.60;;;;;;5051806;28;20037;-59
2022/04/19 11:32:25;;;;;;;21.73;15.50;;;24.70;56.90;;;;;;5054742;28;20113;-59
2022/04/19 11:35:04;;;;;;;21.15;17.45;;;24.50;57.70;;;;;;5057087;28;20097;-59
2022/04/19 11:37:30;;;;;;;22.20;16.88;;;24.60;58.60;;;;;;5056661;28;20044;-58
2022/04/19 11:48:29;;;;;;;14.15;12.40;;;24.30;57.70;;;;;;5049533;28;20097;-59
2022/04/19 11:51:10;;;;;;;16.13;11.35;;;24.70;55.10;;;;;;5051871;28;20032;-58
2022/04/19 11:53:36;;;;;;;13.77;11.20;;;24.50;55.70;;;;;;5052227;28;20031;-59
2022/04/19 11:56:03;;;;;;;18.10;9.85;;;24.40;54.90;;;;;;5051931;28;20456;-59
2022/04/19 11:58:29;;;;;;;18.17;9.23;;;25.00;52.20;;;;;;5047448;28;20036;-59
2022/04/19 12:01:05;;;;;;;27.50;13.65;;;25.10;52.60;;;;;;5049825;28;20032;-59
2022/04/19 12:03:34;;;;;;;23.17;14.48;;;25.10;54.00;;;;;;5058111;28;20033;-59
2022/04/19 12:06:11;;;;;;;19.05;11.75;;;25.20;55.00;;;;;;5055025;28;20529;-59
2022/04/19 12:08:45;;;;;;;9.88;7.38;;;25.30;53.30;;;;;;5056285;28;20101;-59
2022/04/19 12:11:16;;;;;;;10.75;6.75;;;25.50;48.40;;;;;;5056098;28;20085;-59
2022/04/19 12:13:47;;;;;;;13.23;7.22;;;25.80;49.10;;;;;;5056007;28;20458;-59
2022/04/19 12:16:31;;;;;;;9.15;6.22;;;25.70;47.20;;;;;;5057546;28;20051;-59
2022/04/19 12:19:08;;;;;;;7.63;6.55;;;25.60;46.70;;;;;;5053264;28;20028;-59
2022/04/19 12:21:34;;;;;;;11.63;7.40;;;25.20;46.60;;;;;;5056804;28;20028;-58
2022/04/19 12:24:00;;;;;;;9.60;6.70;;;24.90;45.80;;;;;;5053783;28;20524;-59
2022/04/19 12:26:26;;;;;;;10.82;6.95;;;25.50;47.00;;;;;;5052554;28;20509;-59
2022/04/19 12:28:52;;;;;;;10.25;7.30;;;26.20;45.70;;;;;;5052757;28;21358;-59
2022/04/19 12:31:39;;;;;;;11.00;6.75;;;26.50;45.20;;;;;;5057419;28;20032;-60
2022/04/19 12:34:06;;;;;;;8.93;6.90;;;26.90;44.20;;;;;;5050462;28;20108;-59
2022/04/19 12:36:42;;;;;;;9.80;6.65;;;26.70;41.80;;;;;;5052822;28;20044;-58
2022/04/19 12:39:08;;;;;;;8.48;6.28;;;26.00;42.80;;;;;;5055681;28;20036;-58
2022/04/19 12:41:44;;;;;;;9.43;7.18;;;25.40;42.60;;;;;;5056361;28;20032;-58
2022/04/19 12:44:12;;;;;;;11.10;7.15;;;25.30;44.70;;;;;;5052005;28;20119;-58
2022/04/19 12:46:49;;;;;;;9.95;6.75;;;25.30;44.20;;;;;;5053381;28;20545;-58
2022/04/19 12:49:29;;;;;;;10.32;6.22;;;25.30;42.70;;;;;;5054835;28;20119;-58
2022/04/19 12:52:08;;;;;;;10.05;7.65;;;25.10;43.80;;;;;;5075972;28;20115;-58
2022/04/19 12:54:38;;;;;;;15.88;7.60;;;24.90;43.10;;;;;;5058843;28;20033;-58
2022/04/19 12:57:10;;;;;;;8.70;6.78;;;24.80;43.90;;;;;;5057346;28;20108;-58
2022/04/19 12:59:36;;;;;;;;;;;24.80;44.40;;;;;;5060185;28;20369;-59
2022/04/19 13:02:01;;;;;;;12.10;6.70;;;25.10;42.90;;;;;;5058148;28;19934;-58
2022/04/19 13:04:28;;;;;;;13.90;7.50;;;25.50;42.60;;;;;;5064263;28;20040;-58
2022/04/19 13:12:25;;;;;;;12.00;7.30;;;25.90;43.60;;;;;;5060410;28;20332;-59
2022/04/19 13:14:55;;;;;;;11.43;7.82;;;25.80;43.60;;;;;;5061222;28;20134;-59